createdAt,value
2017-07-09T00:00:47.940Z,0.00
2017-07-09T00:01:47.936Z,0.00
2017-07-09T00:02:47.995Z,0.00
2017-07-09T00:03:47.930Z,0.00
2017-07-09T00:04:47.943Z,0.00
2017-07-09T00:05:47.848Z,0.00
2017-07-09T00:06:47.936Z,0.00
2017-07-09T00:07:47.853Z,0.00
2017-07-09T00:08:47.943Z,0.00
2017-07-09T00:09:47.861Z,0.00
2017-07-09T00:10:47.940Z,0.00
2017-07-09T00:11:47.937Z,0.00
2017-07-09T00:12:47.941Z,0.00
2017-07-09T00:13:47.947Z,0.00
2017-07-09T00:14:47.946Z,0.00
2017-07-09T00:15:47.865Z,0.00
2017-07-09T00:16:47.953Z,0.00
2017-07-09T00:17:47.909Z,0.00
2017-07-09T00:18:47.899Z,0.00
2017-07-09T00:19:47.865Z,0.00
2017-07-09T00:20:47.998Z,0.00
2017-07-09T00:21:47.941Z,0.00
2017-07-09T00:22:47.916Z,0.00
2017-07-09T00:23:47.923Z,0.00
2017-07-09T00:24:47.922Z,0.00
2017-07-09T00:25:47.924Z,0.00
2017-07-09T00:26:47.922Z,0.00
2017-07-09T00:27:47.926Z,0.00
2017-07-09T00:28:47.922Z,0.00
2017-07-09T00:29:47.925Z,0.00
2017-07-09T00:30:47.923Z,0.00
2017-07-09T00:31:47.893Z,0.00
2017-07-09T00:32:47.915Z,0.00
2017-07-09T00:33:47.864Z,0.00
2017-07-09T00:34:47.870Z,0.00
2017-07-09T00:35:47.963Z,0.00
2017-07-09T00:36:47.963Z,0.00
2017-07-09T00:37:47.967Z,0.00
2017-07-09T00:38:47.850Z,0.00
2017-07-09T00:39:47.906Z,0.00
2017-07-09T00:40:47.899Z,0.00
2017-07-09T00:41:47.870Z,0.00
2017-07-09T00:42:47.962Z,0.00
2017-07-09T00:43:47.970Z,0.00
2017-07-09T00:44:47.894Z,0.00
2017-07-09T00:45:47.949Z,0.00
2017-07-09T00:46:47.886Z,0.00
2017-07-09T00:47:47.880Z,0.00
2017-07-09T00:48:47.936Z,0.00
2017-07-09T00:49:47.972Z,0.00
2017-07-09T00:50:47.974Z,0.00
2017-07-09T00:51:47.954Z,0.00
2017-07-09T00:52:47.966Z,0.00
2017-07-09T00:53:47.937Z,0.00
2017-07-09T00:54:47.970Z,0.00
2017-07-09T00:55:47.891Z,0.00
2017-07-09T00:56:47.888Z,0.00
2017-07-09T00:57:47.924Z,0.00
2017-07-09T00:58:47.969Z,0.00
2017-07-09T00:59:47.979Z,0.00
2017-07-09T01:00:48.038Z,0.00
2017-07-09T01:01:47.955Z,0.00
2017-07-09T01:02:47.956Z,0.00
2017-07-09T01:03:47.955Z,0.00
2017-07-09T01:04:47.957Z,0.00
2017-07-09T01:05:47.957Z,0.00
2017-07-09T01:06:47.957Z,0.00
2017-07-09T01:07:47.973Z,0.00
2017-07-09T01:08:47.959Z,0.00
2017-07-09T01:09:47.957Z,0.00
2017-07-09T01:10:48.044Z,0.00
2017-07-09T01:11:47.982Z,0.00
2017-07-09T01:12:47.982Z,0.00
2017-07-09T01:13:47.913Z,0.00
2017-07-09T01:14:47.978Z,0.00
2017-07-09T01:15:47.978Z,0.00
2017-07-09T01:16:47.981Z,0.00
2017-07-09T01:17:47.990Z,0.00
2017-07-09T01:18:48.014Z,0.00
2017-07-09T01:19:47.989Z,0.00
2017-07-09T01:20:47.991Z,0.00
2017-07-09T01:21:47.952Z,0.00
2017-07-09T01:22:47.954Z,0.00
2017-07-09T01:23:47.956Z,0.00
2017-07-09T01:24:47.955Z,0.00
2017-07-09T01:25:47.957Z,0.00
2017-07-09T01:26:47.960Z,0.00
2017-07-09T01:27:47.956Z,0.00
2017-07-09T01:28:47.957Z,0.00
2017-07-09T01:29:47.958Z,0.00
2017-07-09T01:30:47.959Z,0.00
2017-07-09T01:31:47.924Z,0.00
2017-07-09T01:32:47.999Z,0.00
2017-07-09T01:33:47.903Z,0.00
2017-07-09T01:34:47.993Z,0.00
2017-07-09T01:35:48.000Z,0.00
2017-07-09T01:36:47.988Z,0.00
2017-07-09T01:37:47.910Z,0.00
2017-07-09T01:38:47.912Z,0.00
2017-07-09T01:39:47.998Z,0.00
2017-07-09T01:40:47.908Z,0.00
2017-07-09T01:41:48.011Z,0.00
2017-07-09T01:42:47.958Z,0.00
2017-07-09T01:43:47.999Z,0.00
2017-07-09T01:44:47.994Z,0.00
2017-07-09T01:45:47.997Z,0.00
2017-07-09T01:46:47.996Z,0.00
2017-07-09T01:47:48.011Z,0.00
2017-07-09T01:48:48.020Z,0.00
2017-07-09T01:49:47.932Z,0.00
2017-07-09T01:50:47.970Z,0.00
2017-07-09T01:51:47.999Z,0.00
2017-07-09T01:52:47.918Z,0.00
2017-07-09T01:53:48.001Z,0.00
2017-07-09T01:54:47.994Z,0.00
2017-07-09T01:55:47.920Z,0.00
2017-07-09T01:56:47.931Z,0.00
2017-07-09T01:57:48.020Z,0.00
2017-07-09T01:58:48.003Z,0.00
2017-07-09T01:59:47.972Z,0.00
2017-07-09T02:00:47.923Z,0.00
2017-07-09T02:01:48.006Z,0.00
2017-07-09T02:02:47.990Z,0.00
2017-07-09T02:03:48.006Z,0.00
2017-07-09T02:04:47.990Z,0.00
2017-07-09T02:05:47.991Z,0.00
2017-07-09T02:06:48.012Z,0.00
2017-07-09T02:07:47.998Z,0.00
2017-07-09T02:08:47.987Z,0.00
2017-07-09T02:09:47.994Z,0.00
2017-07-09T02:10:48.009Z,0.00
2017-07-09T02:11:47.997Z,0.00
2017-07-09T02:12:47.997Z,0.00
2017-07-09T02:13:47.998Z,0.00
2017-07-09T02:14:47.994Z,0.00
2017-07-09T02:15:47.976Z,0.00
2017-07-09T02:16:48.002Z,0.00
2017-07-09T02:17:48.003Z,0.00
2017-07-09T02:18:47.998Z,0.00
2017-07-09T02:19:48.001Z,0.00
2017-07-09T02:20:48.000Z,0.00
2017-07-09T02:21:48.015Z,0.00
2017-07-09T02:22:48.017Z,0.00
2017-07-09T02:23:47.936Z,0.00
2017-07-09T02:24:48.005Z,0.00
2017-07-09T02:25:48.010Z,0.00
2017-07-09T02:26:48.021Z,0.00
2017-07-09T02:27:48.025Z,0.00
2017-07-09T02:28:48.027Z,0.00
2017-07-09T02:29:48.011Z,0.00
2017-07-09T02:30:48.021Z,0.00
2017-07-09T02:31:47.939Z,0.00
2017-07-09T02:32:47.990Z,0.00
2017-07-09T02:33:48.026Z,0.00
2017-07-09T02:34:48.009Z,0.00
2017-07-09T02:35:47.959Z,0.00
2017-07-09T02:36:48.104Z,0.00
2017-07-09T02:37:48.027Z,0.00
2017-07-09T02:38:48.033Z,0.00
2017-07-09T02:39:48.023Z,0.00
2017-07-09T02:40:48.018Z,0.00
2017-07-09T02:41:48.039Z,0.00
2017-07-09T02:42:48.016Z,0.00
2017-07-09T02:43:47.932Z,0.00
2017-07-09T02:44:48.017Z,0.00
2017-07-09T02:45:48.013Z,0.00
2017-07-09T02:46:48.015Z,0.00
2017-07-09T02:47:48.016Z,0.00
2017-07-09T02:48:48.017Z,0.00
2017-07-09T02:49:48.020Z,0.00
2017-07-09T02:50:48.019Z,0.00
2017-07-09T02:51:48.042Z,0.00
2017-07-09T02:52:48.042Z,0.00
2017-07-09T02:53:48.036Z,0.00
2017-07-09T02:54:48.037Z,0.00
2017-07-09T02:55:48.025Z,0.00
2017-07-09T02:56:48.040Z,0.00
2017-07-09T02:57:48.001Z,0.00
2017-07-09T02:58:48.046Z,0.00
2017-07-09T02:59:48.013Z,0.00
2017-07-09T03:00:48.046Z,0.00
2017-07-09T03:01:48.006Z,0.00
2017-07-09T03:02:48.024Z,0.00
2017-07-09T03:03:47.926Z,0.00
2017-07-09T03:04:48.022Z,0.00
2017-07-09T03:05:47.945Z,0.00
2017-07-09T03:06:47.934Z,0.00
2017-07-09T03:07:48.037Z,0.00
2017-07-09T03:08:48.040Z,0.00
2017-07-09T03:09:47.989Z,0.00
2017-07-09T03:10:47.943Z,0.00
2017-07-09T03:11:47.980Z,0.00
2017-07-09T03:12:47.918Z,0.00
2017-07-09T03:13:47.989Z,0.00
2017-07-09T03:14:47.919Z,0.00
2017-07-09T03:15:47.991Z,0.00
2017-07-09T03:16:47.991Z,0.00
2017-07-09T03:17:47.942Z,0.00
2017-07-09T03:18:47.949Z,0.00
2017-07-09T03:19:48.055Z,0.00
2017-07-09T03:20:47.991Z,0.00
2017-07-09T03:21:48.000Z,0.00
2017-07-09T03:22:47.966Z,0.00
2017-07-09T03:23:47.986Z,0.00
2017-07-09T03:24:48.065Z,0.00
2017-07-09T03:25:48.073Z,0.00
2017-07-09T03:26:48.071Z,0.00
2017-07-09T03:27:48.062Z,0.00
2017-07-09T03:28:48.058Z,0.00
2017-07-09T03:29:47.977Z,0.00
2017-07-09T03:30:48.026Z,0.00
2017-07-09T03:31:48.056Z,0.00
2017-07-09T03:32:48.052Z,0.00
2017-07-09T03:33:48.066Z,0.00
2017-07-09T03:34:47.972Z,0.00
2017-07-09T03:35:48.057Z,0.00
2017-07-09T03:36:47.966Z,0.00
2017-07-09T03:37:48.047Z,0.00
2017-07-09T03:38:48.054Z,0.00
2017-07-09T03:39:48.055Z,0.00
2017-07-09T03:40:48.060Z,0.00
2017-07-09T03:41:47.962Z,0.00
2017-07-09T03:42:48.036Z,0.00
2017-07-09T03:43:48.037Z,0.00
2017-07-09T03:44:48.036Z,0.00
2017-07-09T03:45:48.035Z,0.00
2017-07-09T03:46:48.040Z,0.00
2017-07-09T03:47:48.039Z,0.00
2017-07-09T03:48:48.039Z,0.00
2017-07-09T03:49:48.041Z,0.00
2017-07-09T03:50:48.040Z,0.00
2017-07-09T03:51:48.042Z,0.00
2017-07-09T03:52:48.068Z,0.00
2017-07-09T03:53:47.991Z,0.00
2017-07-09T03:54:48.066Z,0.00
2017-07-09T03:55:48.059Z,0.00
2017-07-09T03:56:48.081Z,0.00
2017-07-09T03:57:48.067Z,0.00
2017-07-09T03:58:48.079Z,0.00
2017-07-09T03:59:48.076Z,0.00
2017-07-09T04:00:48.061Z,0.00
2017-07-09T04:01:48.081Z,1.00
2017-07-09T04:02:48.033Z,1.00
2017-07-09T04:03:48.084Z,1.00
2017-07-09T04:04:48.085Z,1.00
2017-07-09T04:05:48.027Z,1.00
2017-07-09T04:06:48.017Z,1.00
2017-07-09T04:07:47.989Z,1.00
2017-07-09T04:08:48.026Z,1.00
2017-07-09T04:09:48.084Z,1.00
2017-07-09T04:10:47.985Z,1.00
2017-07-09T04:11:47.993Z,1.00
2017-07-09T04:12:48.067Z,1.00
2017-07-09T04:13:48.070Z,1.00
2017-07-09T04:14:48.064Z,1.00
2017-07-09T04:15:48.065Z,1.00
2017-07-09T04:16:48.079Z,1.00
2017-07-09T04:17:48.064Z,1.00
2017-07-09T04:18:48.067Z,1.00
2017-07-09T04:19:48.068Z,1.00
2017-07-09T04:20:48.065Z,2.00
2017-07-09T04:21:48.068Z,2.00
2017-07-09T04:22:48.088Z,2.00
2017-07-09T04:23:48.089Z,2.00
2017-07-09T04:24:48.071Z,2.00
2017-07-09T04:25:48.093Z,2.00
2017-07-09T04:26:48.004Z,2.00
2017-07-09T04:27:48.005Z,2.00
2017-07-09T04:28:48.005Z,2.00
2017-07-09T04:29:48.083Z,2.00
2017-07-09T04:30:48.085Z,2.00
2017-07-09T04:31:48.105Z,2.00
2017-07-09T04:32:48.061Z,2.00
2017-07-09T04:33:48.073Z,1.00
2017-07-09T04:34:48.089Z,1.00
2017-07-09T04:35:48.101Z,1.00
2017-07-09T04:36:48.110Z,2.00
2017-07-09T04:37:48.012Z,2.00
2017-07-09T04:38:48.098Z,2.00
2017-07-09T04:39:48.099Z,2.00
2017-07-09T04:40:48.014Z,2.00
2017-07-09T04:41:48.013Z,2.00
2017-07-09T04:42:48.083Z,2.00
2017-07-09T04:43:48.084Z,2.00
2017-07-09T04:44:48.081Z,2.00
2017-07-09T04:45:48.083Z,3.00
2017-07-09T04:46:48.086Z,3.00
2017-07-09T04:47:48.086Z,3.00
2017-07-09T04:48:48.144Z,3.00
2017-07-09T04:49:48.086Z,3.00
2017-07-09T04:50:48.087Z,4.00
2017-07-09T04:51:48.092Z,4.00
2017-07-09T04:52:48.018Z,4.00
2017-07-09T04:53:48.104Z,4.00
2017-07-09T04:54:48.116Z,4.00
2017-07-09T04:55:48.023Z,5.00
2017-07-09T04:56:48.101Z,5.00
2017-07-09T04:57:48.015Z,5.00
2017-07-09T04:58:48.104Z,5.00
2017-07-09T04:59:48.115Z,6.00
2017-07-09T05:00:48.071Z,6.00
2017-07-09T05:01:48.113Z,6.00
2017-07-09T05:02:48.077Z,6.00
2017-07-09T05:03:48.082Z,6.00
2017-07-09T05:04:48.081Z,6.00
2017-07-09T05:05:48.087Z,6.00
2017-07-09T05:06:48.082Z,6.00
2017-07-09T05:07:48.124Z,6.00
2017-07-09T05:08:48.080Z,6.00
2017-07-09T05:09:48.086Z,6.00
2017-07-09T05:10:48.083Z,6.00
2017-07-09T05:11:48.085Z,6.00
2017-07-09T05:12:48.089Z,6.00
2017-07-09T05:13:48.112Z,6.00
2017-07-09T05:14:48.031Z,6.00
2017-07-09T05:15:48.115Z,6.00
2017-07-09T05:16:48.035Z,6.00
2017-07-09T05:17:48.118Z,6.00
2017-07-09T05:18:48.132Z,7.00
2017-07-09T05:19:48.035Z,7.00
2017-07-09T05:20:48.030Z,7.00
2017-07-09T05:21:48.124Z,7.00
2017-07-09T05:22:48.133Z,7.00
2017-07-09T05:23:48.102Z,8.00
2017-07-09T05:24:48.103Z,8.00
2017-07-09T05:25:48.102Z,8.00
2017-07-09T05:26:48.108Z,8.00
2017-07-09T05:27:48.103Z,8.00
2017-07-09T05:28:48.110Z,8.00
2017-07-09T05:29:48.109Z,8.00
2017-07-09T05:30:48.111Z,8.00
2017-07-09T05:31:48.107Z,8.00
2017-07-09T05:32:48.107Z,8.00
2017-07-09T05:33:48.126Z,7.00
2017-07-09T05:34:48.128Z,7.00
2017-07-09T05:35:48.125Z,7.00
2017-07-09T05:36:48.124Z,7.00
2017-07-09T05:37:48.141Z,7.00
2017-07-09T05:38:48.054Z,7.00
2017-07-09T05:39:48.140Z,7.00
2017-07-09T05:40:48.138Z,7.00
2017-07-09T05:41:48.111Z,7.00
2017-07-09T05:42:48.129Z,7.00
2017-07-09T05:43:48.041Z,6.00
2017-07-09T05:44:48.049Z,6.00
2017-07-09T05:45:48.054Z,6.00
2017-07-09T05:46:48.050Z,6.00
2017-07-09T05:47:48.114Z,7.00
2017-07-09T05:48:48.113Z,7.00
2017-07-09T05:49:48.052Z,7.00
2017-07-09T05:50:48.056Z,7.00
2017-07-09T05:51:48.140Z,7.00
2017-07-09T05:52:48.138Z,8.00
2017-07-09T05:53:48.111Z,8.00
2017-07-09T05:54:48.027Z,9.00
2017-07-09T05:55:48.115Z,9.00
2017-07-09T05:56:48.110Z,9.00
2017-07-09T05:57:48.108Z,10.00
2017-07-09T05:58:48.112Z,10.00
2017-07-09T05:59:48.108Z,11.00
2017-07-09T06:00:48.111Z,12.00
2017-07-09T06:01:48.111Z,12.00
2017-07-09T06:02:48.208Z,13.00
2017-07-09T06:03:48.129Z,14.00
2017-07-09T06:04:48.128Z,14.00
2017-07-09T06:05:48.127Z,14.00
2017-07-09T06:06:48.122Z,14.00
2017-07-09T06:07:48.126Z,14.00
2017-07-09T06:08:48.126Z,15.00
2017-07-09T06:09:48.125Z,15.00
2017-07-09T06:10:48.128Z,16.00
2017-07-09T06:11:48.127Z,16.00
2017-07-09T06:12:48.127Z,16.00
2017-07-09T06:13:48.114Z,17.00
2017-07-09T06:14:48.124Z,17.00
2017-07-09T06:15:48.118Z,17.00
2017-07-09T06:16:48.115Z,18.00
2017-07-09T06:17:48.118Z,19.00
2017-07-09T06:18:48.119Z,19.00
2017-07-09T06:19:48.117Z,19.00
2017-07-09T06:20:48.120Z,19.00
2017-07-09T06:21:48.118Z,19.00
2017-07-09T06:22:48.124Z,22.00
2017-07-09T06:23:48.125Z,22.00
2017-07-09T06:24:48.123Z,23.00
2017-07-09T06:25:48.125Z,20.00
2017-07-09T06:26:48.123Z,19.00
2017-07-09T06:27:48.048Z,19.00
2017-07-09T06:28:48.128Z,21.00
2017-07-09T06:29:48.125Z,25.00
2017-07-09T06:30:48.125Z,23.00
2017-07-09T06:31:48.128Z,20.00
2017-07-09T06:32:48.129Z,20.00
2017-07-09T06:33:48.144Z,19.00
2017-07-09T06:34:48.141Z,19.00
2017-07-09T06:35:48.141Z,18.00
2017-07-09T06:36:48.146Z,18.00
2017-07-09T06:37:48.144Z,18.00
2017-07-09T06:38:48.144Z,18.00
2017-07-09T06:39:48.145Z,17.00
2017-07-09T06:40:48.143Z,17.00
2017-07-09T06:41:48.143Z,17.00
2017-07-09T06:42:48.143Z,17.00
2017-07-09T06:43:48.141Z,18.00
2017-07-09T06:44:48.163Z,19.00
2017-07-09T06:45:48.161Z,19.00
2017-07-09T06:46:48.175Z,21.00
2017-07-09T06:47:48.076Z,23.00
2017-07-09T06:48:48.085Z,24.00
2017-07-09T06:49:48.078Z,21.00
2017-07-09T06:50:48.168Z,18.00
2017-07-09T06:51:48.093Z,17.00
2017-07-09T06:52:48.168Z,17.00
2017-07-09T06:53:48.152Z,17.00
2017-07-09T06:54:48.153Z,17.00
2017-07-09T06:55:48.153Z,16.00
2017-07-09T06:56:48.150Z,16.00
2017-07-09T06:57:48.153Z,15.00
2017-07-09T06:58:48.155Z,16.00
2017-07-09T06:59:48.156Z,17.00
2017-07-09T07:00:48.074Z,18.00
2017-07-09T07:01:48.155Z,19.00
2017-07-09T07:02:48.159Z,20.00
2017-07-09T07:03:48.129Z,20.00
2017-07-09T07:04:48.077Z,19.00
2017-07-09T07:05:48.131Z,18.00
2017-07-09T07:06:48.070Z,19.00
2017-07-09T07:07:48.086Z,20.00
2017-07-09T07:08:48.085Z,22.00
2017-07-09T07:09:48.135Z,20.00
2017-07-09T07:10:48.122Z,19.00
2017-07-09T07:11:48.135Z,18.00
2017-07-09T07:12:48.137Z,17.00
2017-07-09T07:13:48.161Z,17.00
2017-07-09T07:14:48.164Z,17.00
2017-07-09T07:15:48.163Z,18.00
2017-07-09T07:16:48.160Z,19.00
2017-07-09T07:17:48.165Z,19.00
2017-07-09T07:18:48.167Z,20.00
2017-07-09T07:19:48.167Z,20.00
2017-07-09T07:20:48.164Z,20.00
2017-07-09T07:21:48.166Z,21.00
2017-07-09T07:22:48.165Z,21.00
2017-07-09T07:23:48.181Z,22.00
2017-07-09T07:24:48.187Z,23.00
2017-07-09T07:25:48.189Z,23.00
2017-07-09T07:26:48.109Z,23.00
2017-07-09T07:27:48.187Z,23.00
2017-07-09T07:28:48.108Z,23.00
2017-07-09T07:29:48.199Z,23.00
2017-07-09T07:30:48.155Z,23.00
2017-07-09T07:31:48.113Z,24.00
2017-07-09T07:32:48.185Z,23.00
2017-07-09T07:33:48.172Z,22.00
2017-07-09T07:34:48.177Z,20.00
2017-07-09T07:35:48.175Z,19.00
2017-07-09T07:36:48.173Z,19.00
2017-07-09T07:37:48.175Z,20.00
2017-07-09T07:38:48.177Z,21.00
2017-07-09T07:39:48.175Z,22.00
2017-07-09T07:40:48.174Z,23.00
2017-07-09T07:41:48.179Z,23.00
2017-07-09T07:42:48.178Z,25.00
2017-07-09T07:43:48.178Z,27.00
2017-07-09T07:44:48.181Z,26.00
2017-07-09T07:45:48.179Z,24.00
2017-07-09T07:46:48.180Z,22.00
2017-07-09T07:47:48.181Z,22.00
2017-07-09T07:48:48.181Z,21.00
2017-07-09T07:49:48.185Z,21.00
2017-07-09T07:50:48.179Z,21.00
2017-07-09T07:51:48.187Z,21.00
2017-07-09T07:52:48.181Z,22.00
2017-07-09T07:53:48.185Z,23.00
2017-07-09T07:54:48.213Z,24.00
2017-07-09T07:55:48.199Z,26.00
2017-07-09T07:56:48.120Z,26.00
2017-07-09T07:57:48.206Z,25.00
2017-07-09T07:58:48.212Z,26.00
2017-07-09T07:59:48.200Z,26.00
2017-07-09T08:00:48.203Z,26.00
2017-07-09T08:01:48.281Z,26.00
2017-07-09T08:02:48.122Z,26.00
2017-07-09T08:03:48.132Z,26.00
2017-07-09T08:04:48.209Z,26.00
2017-07-09T08:05:48.193Z,27.00
2017-07-09T08:06:48.210Z,28.00
2017-07-09T08:07:48.206Z,28.00
2017-07-09T08:08:48.210Z,30.00
2017-07-09T08:09:48.130Z,27.00
2017-07-09T08:10:48.196Z,27.00
2017-07-09T08:11:48.186Z,28.00
2017-07-09T08:12:48.214Z,28.00
2017-07-09T08:13:48.131Z,28.00
2017-07-09T08:14:48.198Z,28.00
2017-07-09T08:15:48.199Z,31.00
2017-07-09T08:16:48.299Z,30.00
2017-07-09T08:17:48.196Z,30.00
2017-07-09T08:18:48.202Z,36.00
2017-07-09T08:19:48.197Z,36.00
2017-07-09T08:20:48.198Z,46.00
2017-07-09T08:21:48.121Z,40.00
2017-07-09T08:22:48.203Z,38.00
2017-07-09T08:23:48.202Z,47.00
2017-07-09T08:24:48.223Z,44.00
2017-07-09T08:25:48.213Z,38.00
2017-07-09T08:26:48.228Z,46.00
2017-07-09T08:27:48.196Z,42.00
2017-07-09T08:28:48.203Z,40.00
2017-07-09T08:29:48.223Z,33.00
2017-07-09T08:30:48.185Z,44.00
2017-07-09T08:31:48.184Z,47.00
2017-07-09T08:32:48.225Z,45.00
2017-07-09T08:33:48.276Z,49.00
2017-07-09T08:34:48.114Z,31.00
2017-07-09T08:35:48.119Z,32.00
2017-07-09T08:36:48.223Z,35.00
2017-07-09T08:37:48.097Z,50.00
2017-07-09T08:38:48.223Z,49.00
2017-07-09T08:39:48.118Z,50.00
2017-07-09T08:40:48.131Z,39.00
2017-07-09T08:41:48.114Z,48.00
2017-07-09T08:42:48.122Z,48.00
2017-07-09T08:43:48.230Z,48.00
2017-07-09T08:44:48.145Z,47.00
2017-07-09T08:45:48.210Z,50.00
2017-07-09T08:46:48.230Z,45.00
2017-07-09T08:47:48.231Z,44.00
2017-07-09T08:48:48.238Z,49.00
2017-07-09T08:49:48.238Z,40.00
2017-07-09T08:50:48.238Z,44.00
2017-07-09T08:51:48.231Z,37.00
2017-07-09T08:52:48.236Z,34.00
2017-07-09T08:53:48.238Z,34.00
2017-07-09T08:54:48.158Z,29.00
2017-07-09T08:55:48.241Z,29.00
2017-07-09T08:56:48.232Z,29.00
2017-07-09T08:57:48.154Z,40.00
2017-07-09T08:58:48.243Z,32.00
2017-07-09T08:59:48.149Z,33.00
2017-07-09T09:00:48.244Z,36.00
2017-07-09T09:01:48.219Z,31.00
2017-07-09T09:02:48.237Z,30.00
2017-07-09T09:03:48.164Z,30.00
2017-07-09T09:04:48.245Z,30.00
2017-07-09T09:05:48.356Z,31.00
2017-07-09T09:06:48.248Z,32.00
2017-07-09T09:07:48.222Z,36.00
2017-07-09T09:08:48.232Z,44.00
2017-07-09T09:09:48.272Z,37.00
2017-07-09T09:10:48.250Z,31.00
2017-07-09T09:11:48.171Z,33.00
2017-07-09T09:12:48.171Z,32.00
2017-07-09T09:13:48.172Z,34.00
2017-07-09T09:14:48.220Z,44.00
2017-07-09T09:15:48.223Z,34.00
2017-07-09T09:16:48.226Z,32.00
2017-07-09T09:17:48.225Z,31.00
2017-07-09T09:18:48.225Z,33.00
2017-07-09T09:19:48.222Z,31.00
2017-07-09T09:20:48.223Z,32.00
2017-07-09T09:21:48.223Z,44.00
2017-07-09T09:22:48.223Z,50.00
2017-07-09T09:23:48.223Z,36.00
2017-07-09T09:24:48.222Z,32.00
2017-07-09T09:25:48.229Z,30.00
2017-07-09T09:26:48.223Z,29.00
2017-07-09T09:27:48.225Z,29.00
2017-07-09T09:28:48.228Z,29.00
2017-07-09T09:29:48.231Z,28.00
2017-07-09T09:30:48.227Z,28.00
2017-07-09T09:31:48.228Z,27.00
2017-07-09T09:32:48.226Z,27.00
2017-07-09T09:33:48.232Z,26.00
2017-07-09T09:34:48.180Z,26.00
2017-07-09T09:35:48.255Z,26.00
2017-07-09T09:36:48.241Z,25.00
2017-07-09T09:37:48.239Z,25.00
2017-07-09T09:38:48.266Z,25.00
2017-07-09T09:39:48.252Z,25.00
2017-07-09T09:40:48.181Z,25.00
2017-07-09T09:41:48.270Z,24.00
2017-07-09T09:42:48.244Z,24.00
2017-07-09T09:43:48.184Z,23.00
2017-07-09T09:44:48.248Z,23.00
2017-07-09T09:45:48.253Z,23.00
2017-07-09T09:46:48.251Z,23.00
2017-07-09T09:47:48.246Z,24.00
2017-07-09T09:48:48.252Z,24.00
2017-07-09T09:49:48.252Z,24.00
2017-07-09T09:50:48.253Z,24.00
2017-07-09T09:51:48.252Z,24.00
2017-07-09T09:52:48.235Z,23.00
2017-07-09T09:53:48.254Z,23.00
2017-07-09T09:54:48.256Z,22.00
2017-07-09T09:55:48.253Z,22.00
2017-07-09T09:56:48.252Z,22.00
2017-07-09T09:57:48.261Z,21.00
2017-07-09T09:58:48.259Z,21.00
2017-07-09T09:59:48.273Z,21.00
2017-07-09T10:00:48.256Z,20.00
2017-07-09T10:01:48.257Z,21.00
2017-07-09T10:02:48.175Z,21.00
2017-07-09T10:03:48.262Z,21.00
2017-07-09T10:04:48.196Z,22.00
2017-07-09T10:05:48.282Z,22.00
2017-07-09T10:06:48.282Z,23.00
2017-07-09T10:07:48.203Z,22.00
2017-07-09T10:08:48.280Z,22.00
2017-07-09T10:09:48.192Z,22.00
2017-07-09T10:10:48.201Z,22.00
2017-07-09T10:11:48.284Z,22.00
2017-07-09T10:12:48.205Z,22.00
2017-07-09T10:13:48.284Z,22.00
2017-07-09T10:14:48.281Z,22.00
2017-07-09T10:15:48.197Z,23.00
2017-07-09T10:16:48.286Z,23.00
2017-07-09T10:17:48.282Z,24.00
2017-07-09T10:18:48.277Z,25.00
2017-07-09T10:19:48.285Z,25.00
2017-07-09T10:20:48.291Z,26.00
2017-07-09T10:21:48.263Z,25.00
2017-07-09T10:22:48.199Z,25.00
2017-07-09T10:23:48.190Z,25.00
2017-07-09T10:24:48.187Z,25.00
2017-07-09T10:25:48.231Z,26.00
2017-07-09T10:26:48.237Z,27.00
2017-07-09T10:27:48.232Z,28.00
2017-07-09T10:28:48.147Z,29.00
2017-07-09T10:29:48.216Z,29.00
2017-07-09T10:30:48.176Z,29.00
2017-07-09T10:31:48.234Z,30.00
2017-07-09T10:32:48.235Z,30.00
2017-07-09T10:33:48.240Z,29.00
2017-07-09T10:34:48.263Z,29.00
2017-07-09T10:35:48.271Z,29.00
2017-07-09T10:36:48.265Z,29.00
2017-07-09T10:37:48.266Z,29.00
2017-07-09T10:38:48.268Z,29.00
2017-07-09T10:39:48.272Z,29.00
2017-07-09T10:40:48.275Z,29.00
2017-07-09T10:41:48.274Z,29.00
2017-07-09T10:42:48.270Z,29.00
2017-07-09T10:43:48.270Z,29.00
2017-07-09T10:44:48.313Z,30.00
2017-07-09T10:45:48.215Z,31.00
2017-07-09T10:46:48.303Z,31.00
2017-07-09T10:47:48.259Z,31.00
2017-07-09T10:48:48.303Z,30.00
2017-07-09T10:49:48.223Z,30.00
2017-07-09T10:50:48.304Z,29.00
2017-07-09T10:51:48.335Z,29.00
2017-07-09T10:52:48.304Z,29.00
2017-07-09T10:53:48.213Z,32.00
2017-07-09T10:54:48.307Z,31.00
2017-07-09T10:55:48.308Z,31.00
2017-07-09T10:56:48.310Z,33.00
2017-07-09T10:57:48.221Z,35.00
2017-07-09T10:58:48.316Z,38.00
2017-07-09T10:59:48.312Z,45.00
2017-07-09T11:00:48.310Z,46.00
2017-07-09T11:01:48.236Z,46.00
2017-07-09T11:02:48.236Z,49.00
2017-07-09T11:03:48.309Z,48.00
2017-07-09T11:04:48.297Z,44.00
2017-07-09T11:05:48.296Z,44.00
2017-07-09T11:06:48.300Z,51.00
2017-07-09T11:07:48.297Z,52.00
2017-07-09T11:08:48.297Z,50.00
2017-07-09T11:09:48.301Z,52.00
2017-07-09T11:10:48.301Z,53.00
2017-07-09T11:11:48.305Z,55.00
2017-07-09T11:12:48.303Z,56.00
2017-07-09T11:13:48.302Z,55.00
2017-07-09T11:14:48.326Z,55.00
2017-07-09T11:15:48.320Z,53.00
2017-07-09T11:16:48.327Z,54.00
2017-07-09T11:17:48.319Z,56.00
2017-07-09T11:18:48.281Z,54.00
2017-07-09T11:19:48.318Z,55.00
2017-07-09T11:20:48.323Z,56.00
2017-07-09T11:21:48.233Z,54.00
2017-07-09T11:22:48.248Z,53.00
2017-07-09T11:23:48.241Z,55.00
2017-07-09T11:24:48.306Z,44.00
2017-07-09T11:25:48.305Z,56.00
2017-07-09T11:26:48.308Z,58.00
2017-07-09T11:27:48.309Z,57.00
2017-07-09T11:28:48.232Z,56.00
2017-07-09T11:29:48.317Z,58.00
2017-07-09T11:30:48.307Z,55.00
2017-07-09T11:31:48.309Z,55.00
2017-07-09T11:32:48.310Z,55.00
2017-07-09T11:33:48.318Z,56.00
2017-07-09T11:34:48.351Z,57.00
2017-07-09T11:35:48.311Z,60.00
2017-07-09T11:36:48.240Z,58.00
2017-07-09T11:37:48.330Z,52.00
2017-07-09T11:38:48.330Z,57.00
2017-07-09T11:39:48.246Z,61.00
2017-07-09T11:40:48.329Z,61.00
2017-07-09T11:41:48.263Z,60.00
2017-07-09T11:42:48.330Z,59.00
2017-07-09T11:43:48.296Z,58.00
2017-07-09T11:44:48.292Z,57.00
2017-07-09T11:45:48.216Z,56.00
2017-07-09T11:46:48.222Z,56.00
2017-07-09T11:47:48.335Z,59.00
2017-07-09T11:48:48.312Z,61.00
2017-07-09T11:49:48.231Z,61.00
2017-07-09T11:50:48.202Z,59.00
2017-07-09T11:51:48.243Z,59.00
2017-07-09T11:52:48.319Z,60.00
2017-07-09T11:53:48.226Z,61.00
2017-07-09T11:54:48.315Z,62.00
2017-07-09T11:55:48.314Z,62.00
2017-07-09T11:56:48.314Z,62.00
2017-07-09T11:57:48.315Z,63.00
2017-07-09T11:58:48.313Z,62.00
2017-07-09T11:59:48.316Z,61.00
2017-07-09T12:00:48.315Z,55.00
2017-07-09T12:01:48.320Z,56.00
2017-07-09T12:02:48.315Z,56.00
2017-07-09T12:03:48.320Z,56.00
2017-07-09T12:04:48.316Z,59.00
2017-07-09T12:05:48.320Z,61.00
2017-07-09T12:06:48.321Z,61.00
2017-07-09T12:07:48.321Z,60.00
2017-07-09T12:08:48.318Z,59.00
2017-07-09T12:09:48.321Z,54.00
2017-07-09T12:10:48.323Z,51.00
2017-07-09T12:11:48.327Z,57.00
2017-07-09T12:12:48.324Z,58.00
2017-07-09T12:13:48.323Z,58.00
2017-07-09T12:14:48.361Z,56.00
2017-07-09T12:15:48.276Z,56.00
2017-07-09T12:16:48.357Z,58.00
2017-07-09T12:17:48.355Z,54.00
2017-07-09T12:18:48.349Z,54.00
2017-07-09T12:19:48.370Z,59.00
2017-07-09T12:20:48.360Z,59.00
2017-07-09T12:21:48.367Z,55.00
2017-07-09T12:22:48.343Z,55.00
2017-07-09T12:23:48.338Z,55.00
2017-07-09T12:24:48.367Z,51.00
2017-07-09T12:25:48.368Z,45.00
2017-07-09T12:26:48.365Z,48.00
2017-07-09T12:27:48.366Z,56.00
2017-07-09T12:28:48.361Z,62.00
2017-07-09T12:29:48.366Z,66.00
2017-07-09T12:30:48.273Z,65.00
2017-07-09T12:31:48.277Z,64.00
2017-07-09T12:32:48.374Z,64.00
2017-07-09T12:33:48.280Z,63.00
2017-07-09T12:34:48.240Z,62.00
2017-07-09T12:35:48.240Z,63.00
2017-07-09T12:36:48.244Z,63.00
2017-07-09T12:37:48.255Z,56.00
2017-07-09T12:38:48.339Z,51.00
2017-07-09T12:39:48.211Z,50.00
2017-07-09T12:40:48.242Z,46.00
2017-07-09T12:41:48.212Z,46.00
2017-07-09T12:42:48.249Z,58.00
2017-07-09T12:43:48.243Z,55.00
2017-07-09T12:44:48.355Z,62.00
2017-07-09T12:45:48.353Z,68.00
2017-07-09T12:46:48.354Z,70.00
2017-07-09T12:47:48.354Z,71.00
2017-07-09T12:48:48.364Z,71.00
2017-07-09T12:49:48.354Z,69.00
2017-07-09T12:50:48.357Z,67.00
2017-07-09T12:51:48.355Z,68.00
2017-07-09T12:52:48.359Z,49.00
2017-07-09T12:53:48.364Z,67.00
2017-07-09T12:54:48.294Z,65.00
2017-07-09T12:55:48.370Z,38.00
2017-07-09T12:56:48.374Z,61.00
2017-07-09T12:57:48.382Z,62.00
2017-07-09T12:58:48.387Z,64.00
2017-07-09T12:59:48.385Z,33.00
2017-07-09T13:00:48.303Z,31.00
2017-07-09T13:01:48.305Z,32.00
2017-07-09T13:02:48.390Z,36.00
2017-07-09T13:03:48.373Z,69.00
2017-07-09T13:04:48.354Z,40.00